sensor_id;sensor_type;location;lat;lon;timestamp;P1;P2;P0
70436;PMS5003;57877;39.750;-104.894;2023-12-14T00:01:29;36;33;
70436;PMS5003;57877;39.750;-104.894;2023-12-14T00:03:54;31;29;
70436;PMS5003;57877;39.750;-104.894;2023-12-14T00:06:20;32;31;
70436;PMS5003;57877;39.750;-104.894;2023-12-14T00:08:45;33;31;
70436;PMS5003;57877;39.750;-104.894;2023-12-14T00:11:10;36;35;
70436;PMS5003;57877;39.750;-104.894;2023-12-14T00:13:36;36;33;
70436;PMS5003;57877;39.750;-104.894;2023-12-14T00:16:01;35;34;
70436;PMS5003;57877;39.750;-104.894;2023-12-14T00:18:27;36;36;
70436;PMS5003;57877;39.750;-104.894;2023-12-14T00:20:52;36;35;
70436;PMS5003;57877;39.750;-104.894;2023-12-14T00:23:18;38;33;
70436;PMS5003;57877;39.750;-104.894;2023-12-14T00:25:43;37;35;
70436;PMS5003;57877;39.750;-104.894;2023-12-14T00:28:08;34;33;
70436;PMS5003;57877;39.750;-104.894;2023-12-14T00:30:33;39;38;
70436;PMS5003;57877;39.750;-104.894;2023-12-14T00:32:58;36;35;
70436;PMS5003;57877;39.750;-104.894;2023-12-14T00:35:23;34;33;
70436;PMS5003;57877;39.750;-104.894;2023-12-14T00:37:48;34;34;
70436;PMS5003;57877;39.750;-104.894;2023-12-14T00:40:13;34;33;
70436;PMS5003;57877;39.750;-104.894;2023-12-14T00:42:38;32;30;
70436;PMS5003;57877;39.750;-104.894;2023-12-14T00:45:03;36;35;
70436;PMS5003;57877;39.750;-104.894;2023-12-14T00:47:28;34;34;
70436;PMS5003;57877;39.750;-104.894;2023-12-14T00:49:53;38;34;
70436;PMS5003;57877;39.750;-104.894;2023-12-14T00:52:18;34;32;
70436;PMS5003;57877;39.750;-104.894;2023-12-14T00:54:43;35;33;
70436;PMS5003;57877;39.750;-104.894;2023-12-14T00:57:08;31;31;
70436;PMS5003;57877;39.750;-104.894;2023-12-14T00:59:33;35;35;
70436;PMS5003;57877;39.750;-104.894;2023-12-14T01:01:59;34;34;
70436;PMS5003;57877;39.750;-104.894;2023-12-14T01:04:24;37;35;
70436;PMS5003;57877;39.750;-104.894;2023-12-14T01:06:49;34;34;
70436;PMS5003;57877;39.750;-104.894;2023-12-14T01:09:14;35;34;
70436;PMS5003;57877;39.750;-104.894;2023-12-14T01:11:39;32;32;
70436;PMS5003;57877;39.750;-104.894;2023-12-14T01:14:04;37;33;
70436;PMS5003;57877;39.750;-104.894;2023-12-14T01:16:29;39;37;
70436;PMS5003;57877;39.750;-104.894;2023-12-14T01:18:54;35;34;
70436;PMS5003;57877;39.750;-104.894;2023-12-14T01:21:20;33;32;
70436;PMS5003;57877;39.750;-104.894;2023-12-14T01:23:45;31;30;
70436;PMS5003;57877;39.750;-104.894;2023-12-14T01:26:10;34;31;
70436;PMS5003;57877;39.750;-104.894;2023-12-14T01:28:35;34;32;
70436;PMS5003;57877;39.750;-104.894;2023-12-14T01:31:00;34;33;
70436;PMS5003;57877;39.750;-104.894;2023-12-14T01:33:25;36;34;
70436;PMS5003;57877;39.750;-104.894;2023-12-14T01:35:50;33;30;
70436;PMS5003;57877;39.750;-104.894;2023-12-14T01:38:15;37;37;
70436;PMS5003;57877;39.750;-104.894;2023-12-14T01:40:40;34;33;
70436;PMS5003;57877;39.750;-104.894;2023-12-14T01:43:06;33;33;
70436;PMS5003;57877;39.750;-104.894;2023-12-14T01:45:30;34;34;
70436;PMS5003;57877;39.750;-104.894;2023-12-14T01:47:55;35;34;
70436;PMS5003;57877;39.750;-104.894;2023-12-14T01:50:20;37;33;
70436;PMS5003;57877;39.750;-104.894;2023-12-14T01:52:46;36;35;
70436;PMS5003;57877;39.750;-104.894;2023-12-14T01:55:10;35;33;
70436;PMS5003;57877;39.750;-104.894;2023-12-14T01:57:35;37;36;
70436;PMS5003;57877;39.750;-104.894;2023-12-14T02:00:01;38;37;
70436;PMS5003;57877;39.750;-104.894;2023-12-14T02:02:26;37;37;
70436;PMS5003;57877;39.750;-104.894;2023-12-14T02:04:51;36;35;
70436;PMS5003;57877;39.750;-104.894;2023-12-14T02:07:16;43;39;
70436;PMS5003;57877;39.750;-104.894;2023-12-14T02:09:41;39;37;
70436;PMS5003;57877;39.750;-104.894;2023-12-14T02:12:06;36;34;
70436;PMS5003;57877;39.750;-104.894;2023-12-14T02:14:31;35;32;
70436;PMS5003;57877;39.750;-104.894;2023-12-14T02:16:57;39;37;
70436;PMS5003;57877;39.750;-104.894;2023-12-14T02:19:23;39;37;
70436;PMS5003;57877;39.750;-104.894;2023-12-14T02:21:48;40;38;
70436;PMS5003;57877;39.750;-104.894;2023-12-14T02:24:13;43;41;
70436;PMS5003;57877;39.750;-104.894;2023-12-14T02:26:38;44;41;
70436;PMS5003;57877;39.750;-104.894;2023-12-14T02:29:03;43;43;
70436;PMS5003;57877;39.750;-104.894;2023-12-14T02:31:28;58;57;
70436;PMS5003;57877;39.750;-104.894;2023-12-14T02:33:53;55;53;
70436;PMS5003;57877;39.750;-104.894;2023-12-14T02:36:18;63;62;
70436;PMS5003;57877;39.750;-104.894;2023-12-14T02:38:43;63;61;
70436;PMS5003;57877;39.750;-104.894;2023-12-14T02:41:08;55;53;
70436;PMS5003;57877;39.750;-104.894;2023-12-14T02:43:33;61;60;
70436;PMS5003;57877;39.750;-104.894;2023-12-14T02:45:58;59;57;
70436;PMS5003;57877;39.750;-104.894;2023-12-14T02:48:24;48;47;
70436;PMS5003;57877;39.750;-104.894;2023-12-14T02:50:49;47;47;
70436;PMS5003;57877;39.750;-104.894;2023-12-14T02:53:14;44;43;
70436;PMS5003;57877;39.750;-104.894;2023-12-14T02:55:39;37;34;
70436;PMS5003;57877;39.750;-104.894;2023-12-14T02:58:04;43;42;
70436;PMS5003;57877;39.750;-104.894;2023-12-14T03:00:29;48;48;
70436;PMS5003;57877;39.750;-104.894;2023-12-14T03:02:54;52;50;
70436;PMS5003;57877;39.750;-104.894;2023-12-14T03:05:19;49;47;
70436;PMS5003;57877;39.750;-104.894;2023-12-14T03:07:44;45;44;
70436;PMS5003;57877;39.750;-104.894;2023-12-14T03:10:09;47;46;
70436;PMS5003;57877;39.750;-104.894;2023-12-14T03:12:34;45;45;
70436;PMS5003;57877;39.750;-104.894;2023-12-14T03:14:59;44;41;
70436;PMS5003;57877;39.750;-104.894;2023-12-14T03:17:24;42;40;
70436;PMS5003;57877;39.750;-104.894;2023-12-14T03:19:49;43;41;
70436;PMS5003;57877;39.750;-104.894;2023-12-14T03:22:15;42;41;
70436;PMS5003;57877;39.750;-104.894;2023-12-14T03:24:40;53;52;
70436;PMS5003;57877;39.750;-104.894;2023-12-14T03:27:05;49;44;
70436;PMS5003;57877;39.750;-104.894;2023-12-14T03:29:30;45;41;
70436;PMS5003;57877;39.750;-104.894;2023-12-14T03:31:55;39;38;
70436;PMS5003;57877;39.750;-104.894;2023-12-14T03:34:20;38;38;
70436;PMS5003;57877;39.750;-104.894;2023-12-14T03:36:45;40;37;
70436;PMS5003;57877;39.750;-104.894;2023-12-14T03:39:10;45;43;
70436;PMS5003;57877;39.750;-104.894;2023-12-14T03:41:35;44;43;
70436;PMS5003;57877;39.750;-104.894;2023-12-14T03:44:00;41;41;
70436;PMS5003;57877;39.750;-104.894;2023-12-14T03:46:25;43;40;
70436;PMS5003;57877;39.750;-104.894;2023-12-14T03:48:50;40;37;
70436;PMS5003;57877;39.750;-104.894;2023-12-14T03:51:17;47;43;
70436;PMS5003;57877;39.750;-104.894;2023-12-14T03:53:40;42;40;
70436;PMS5003;57877;39.750;-104.894;2023-12-14T03:56:05;50;49;
70436;PMS5003;57877;39.750;-104.894;2023-12-14T03:58:31;56;52;
70436;PMS5003;57877;39.750;-104.894;2023-12-14T04:00:56;64;63;
70436;PMS5003;57877;39.750;-104.894;2023-12-14T04:03:21;87;83;
70436;PMS5003;57877;39.750;-104.894;2023-12-14T04:05:46;94;94;
70436;PMS5003;57877;39.750;-104.894;2023-12-14T04:08:11;93;93;
70436;PMS5003;57877;39.750;-104.894;2023-12-14T04:10:36;52;47;
70436;PMS5003;57877;39.750;-104.894;2023-12-14T04:13:01;40;39;
70436;PMS5003;57877;39.750;-104.894;2023-12-14T04:15:26;46;46;
70436;PMS5003;57877;39.750;-104.894;2023-12-14T04:17:51;43;42;
70436;PMS5003;57877;39.750;-104.894;2023-12-14T04:20:16;45;41;
70436;PMS5003;57877;39.750;-104.894;2023-12-14T04:22:41;39;37;
70436;PMS5003;57877;39.750;-104.894;2023-12-14T04:25:06;44;42;
70436;PMS5003;57877;39.750;-104.894;2023-12-14T04:27:31;42;40;
70436;PMS5003;57877;39.750;-104.894;2023-12-14T04:29:56;41;39;
70436;PMS5003;57877;39.750;-104.894;2023-12-14T04:32:21;43;41;
70436;PMS5003;57877;39.750;-104.894;2023-12-14T04:34:46;64;63;
70436;PMS5003;57877;39.750;-104.894;2023-12-14T04:37:11;61;59;
70436;PMS5003;57877;39.750;-104.894;2023-12-14T04:39:36;41;41;
70436;PMS5003;57877;39.750;-104.894;2023-12-14T04:42:01;46;45;
70436;PMS5003;57877;39.750;-104.894;2023-12-14T04:44:26;44;43;
70436;PMS5003;57877;39.750;-104.894;2023-12-14T04:46:52;38;37;
70436;PMS5003;57877;39.750;-104.894;2023-12-14T04:49:18;40;39;
70436;PMS5003;57877;39.750;-104.894;2023-12-14T04:51:42;41;37;
70436;PMS5003;57877;39.750;-104.894;2023-12-14T04:54:07;43;41;
70436;PMS5003;57877;39.750;-104.894;2023-12-14T04:56:32;39;37;
70436;PMS5003;57877;39.750;-104.894;2023-12-14T04:58:57;39;36;
70436;PMS5003;57877;39.750;-104.894;2023-12-14T05:01:22;40;39;
70436;PMS5003;57877;39.750;-104.894;2023-12-14T05:03:47;39;37;
70436;PMS5003;57877;39.750;-104.894;2023-12-14T05:06:12;40;38;
70436;PMS5003;57877;39.750;-104.894;2023-12-14T05:08:37;40;39;
70436;PMS5003;57877;39.750;-104.894;2023-12-14T05:11:02;38;36;
70436;PMS5003;57877;39.750;-104.894;2023-12-14T05:13:27;42;38;
70436;PMS5003;57877;39.750;-104.894;2023-12-14T05:15:52;39;38;
70436;PMS5003;57877;39.750;-104.894;2023-12-14T05:18:18;41;40;
70436;PMS5003;57877;39.750;-104.894;2023-12-14T05:20:43;43;39;
70436;PMS5003;57877;39.750;-104.894;2023-12-14T05:23:08;40;38;
70436;PMS5003;57877;39.750;-104.894;2023-12-14T05:25:33;42;38;
70436;PMS5003;57877;39.750;-104.894;2023-12-14T05:27:58;41;41;
70436;PMS5003;57877;39.750;-104.894;2023-12-14T05:30:23;42;39;
70436;PMS5003;57877;39.750;-104.894;2023-12-14T05:32:48;41;38;
70436;PMS5003;57877;39.750;-104.894;2023-12-14T05:35:13;43;41;
70436;PMS5003;57877;39.750;-104.894;2023-12-14T05:37:38;40;38;
70436;PMS5003;57877;39.750;-104.894;2023-12-14T05:40:03;43;41;
70436;PMS5003;57877;39.750;-104.894;2023-12-14T05:42:28;44;42;
70436;PMS5003;57877;39.750;-104.894;2023-12-14T05:44:53;43;41;
70436;PMS5003;57877;39.750;-104.894;2023-12-14T05:47:18;42;40;
70436;PMS5003;57877;39.750;-104.894;2023-12-14T05:49:43;41;39;
70436;PMS5003;57877;39.750;-104.894;2023-12-14T05:52:08;46;44;
70436;PMS5003;57877;39.750;-104.894;2023-12-14T05:54:34;45;44;
70436;PMS5003;57877;39.750;-104.894;2023-12-14T05:56:58;42;41;
70436;PMS5003;57877;39.750;-104.894;2023-12-14T05:59:24;41;40;
70436;PMS5003;57877;39.750;-104.894;2023-12-14T06:01:49;43;42;
70436;PMS5003;57877;39.750;-104.894;2023-12-14T06:04:14;42;40;
70436;PMS5003;57877;39.750;-104.894;2023-12-14T06:06:39;38;38;
70436;PMS5003;57877;39.750;-104.894;2023-12-14T06:09:04;44;39;
70436;PMS5003;57877;39.750;-104.894;2023-12-14T06:11:29;41;41;
70436;PMS5003;57877;39.750;-104.894;2023-12-14T06:13:54;42;40;
70436;PMS5003;57877;39.750;-104.894;2023-12-14T06:16:19;43;42;
70436;PMS5003;57877;39.750;-104.894;2023-12-14T06:18:45;40;37;
70436;PMS5003;57877;39.750;-104.894;2023-12-14T06:21:11;39;38;
70436;PMS5003;57877;39.750;-104.894;2023-12-14T06:23:35;43;42;
70436;PMS5003;57877;39.750;-104.894;2023-12-14T06:26:00;42;41;
70436;PMS5003;57877;39.750;-104.894;2023-12-14T06:28:25;37;37;
70436;PMS5003;57877;39.750;-104.894;2023-12-14T06:30:50;42;40;
70436;PMS5003;57877;39.750;-104.894;2023-12-14T06:33:15;40;39;
70436;PMS5003;57877;39.750;-104.894;2023-12-14T06:35:40;39;38;
70436;PMS5003;57877;39.750;-104.894;2023-12-14T06:38:05;43;41;
70436;PMS5003;57877;39.750;-104.894;2023-12-14T06:40:30;40;38;
70436;PMS5003;57877;39.750;-104.894;2023-12-14T06:42:55;48;47;
70436;PMS5003;57877;39.750;-104.894;2023-12-14T06:45:20;38;36;
70436;PMS5003;57877;39.750;-104.894;2023-12-14T06:47:45;41;40;
70436;PMS5003;57877;39.750;-104.894;2023-12-14T06:50:10;42;40;
70436;PMS5003;57877;39.750;-104.894;2023-12-14T06:52:35;44;42;
70436;PMS5003;57877;39.750;-104.894;2023-12-14T06:55:00;39;38;
70436;PMS5003;57877;39.750;-104.894;2023-12-14T06:57:25;42;40;
70436;PMS5003;57877;39.750;-104.894;2023-12-14T06:59:52;41;40;
70436;PMS5003;57877;39.750;-104.894;2023-12-14T07:02:17;42;41;
70436;PMS5003;57877;39.750;-104.894;2023-12-14T07:04:42;44;40;
70436;PMS5003;57877;39.750;-104.894;2023-12-14T07:07:07;44;42;
70436;PMS5003;57877;39.750;-104.894;2023-12-14T07:09:32;43;43;
70436;PMS5003;57877;39.750;-104.894;2023-12-14T07:11:57;60;57;
70436;PMS5003;57877;39.750;-104.894;2023-12-14T07:14:22;59;57;
70436;PMS5003;57877;39.750;-104.894;2023-12-14T07:16:47;53;51;
70436;PMS5003;57877;39.750;-104.894;2023-12-14T07:19:12;56;55;
70436;PMS5003;57877;39.750;-104.894;2023-12-14T07:21:37;55;52;
70436;PMS5003;57877;39.750;-104.894;2023-12-14T07:24:02;113;111;
70436;PMS5003;57877;39.750;-104.894;2023-12-14T07:26:27;125;124;
70436;PMS5003;57877;39.750;-104.894;2023-12-14T07:31:17;85;83;
70436;PMS5003;57877;39.750;-104.894;2023-12-14T07:33:42;71;69;
70436;PMS5003;57877;39.750;-104.894;2023-12-14T07:36:08;109;108;
70436;PMS5003;57877;39.750;-104.894;2023-12-14T07:38:33;72;70;
70436;PMS5003;57877;39.750;-104.894;2023-12-14T07:40:57;56;54;
70436;PMS5003;57877;39.750;-104.894;2023-12-14T07:43:23;64;62;
70436;PMS5003;57877;39.750;-104.894;2023-12-14T07:45:48;44;43;
70436;PMS5003;57877;39.750;-104.894;2023-12-14T07:48:13;46;45;
70436;PMS5003;57877;39.750;-104.894;2023-12-14T07:50:38;47;44;
70436;PMS5003;57877;39.750;-104.894;2023-12-14T07:53:03;55;52;
70436;PMS5003;57877;39.750;-104.894;2023-12-14T07:55:28;80;80;
70436;PMS5003;57877;39.750;-104.894;2023-12-14T07:57:53;45;44;
70436;PMS5003;57877;39.750;-104.894;2023-12-14T08:00:18;50;45;
70436;PMS5003;57877;39.750;-104.894;2023-12-14T08:02:43;42;40;
70436;PMS5003;57877;39.750;-104.894;2023-12-14T08:05:08;44;42;
70436;PMS5003;57877;39.750;-104.894;2023-12-14T08:07:33;43;42;
70436;PMS5003;57877;39.750;-104.894;2023-12-14T08:09:59;41;39;
70436;PMS5003;57877;39.750;-104.894;2023-12-14T08:12:23;48;45;
70436;PMS5003;57877;39.750;-104.894;2023-12-14T08:14:48;46;43;
70436;PMS5003;57877;39.750;-104.894;2023-12-14T08:17:13;48;45;
70436;PMS5003;57877;39.750;-104.894;2023-12-14T08:19:39;84;82;
70436;PMS5003;57877;39.750;-104.894;2023-12-14T08:22:04;45;44;
70436;PMS5003;57877;39.750;-104.894;2023-12-14T08:24:29;43;42;
70436;PMS5003;57877;39.750;-104.894;2023-12-14T08:26:54;48;47;
70436;PMS5003;57877;39.750;-104.894;2023-12-14T08:29:19;59;58;
70436;PMS5003;57877;39.750;-104.894;2023-12-14T08:31:44;65;64;
70436;PMS5003;57877;39.750;-104.894;2023-12-14T08:34:10;54;52;
70436;PMS5003;57877;39.750;-104.894;2023-12-14T08:36:34;48;44;
70436;PMS5003;57877;39.750;-104.894;2023-12-14T08:38:59;41;39;
70436;PMS5003;57877;39.750;-104.894;2023-12-14T08:41:25;40;37;
70436;PMS5003;57877;39.750;-104.894;2023-12-14T08:43:49;41;40;
70436;PMS5003;57877;39.750;-104.894;2023-12-14T08:46:15;42;41;
70436;PMS5003;57877;39.750;-104.894;2023-12-14T08:48:40;44;40;
70436;PMS5003;57877;39.750;-104.894;2023-12-14T08:51:05;43;40;
70436;PMS5003;57877;39.750;-104.894;2023-12-14T08:53:30;40;37;
70436;PMS5003;57877;39.750;-104.894;2023-12-14T08:55:55;46;42;
70436;PMS5003;57877;39.750;-104.894;2023-12-14T08:58:20;40;39;
70436;PMS5003;57877;39.750;-104.894;2023-12-14T09:00:45;42;39;
70436;PMS5003;57877;39.750;-104.894;2023-12-14T09:03:10;43;40;
70436;PMS5003;57877;39.750;-104.894;2023-12-14T09:05:35;40;39;
70436;PMS5003;57877;39.750;-104.894;2023-12-14T09:08:00;44;40;
70436;PMS5003;57877;39.750;-104.894;2023-12-14T09:10:25;40;38;
70436;PMS5003;57877;39.750;-104.894;2023-12-14T09:12:51;41;41;
70436;PMS5003;57877;39.750;-104.894;2023-12-14T09:15:16;42;42;
70436;PMS5003;57877;39.750;-104.894;2023-12-14T09:17:41;42;42;
70436;PMS5003;57877;39.750;-104.894;2023-12-14T09:20:06;41;38;
70436;PMS5003;57877;39.750;-104.894;2023-12-14T09:22:31;45;44;
70436;PMS5003;57877;39.750;-104.894;2023-12-14T09:24:56;39;38;
70436;PMS5003;57877;39.750;-104.894;2023-12-14T09:27:21;42;41;
70436;PMS5003;57877;39.750;-104.894;2023-12-14T09:29:46;42;38;
70436;PMS5003;57877;39.750;-104.894;2023-12-14T09:32:11;45;42;
70436;PMS5003;57877;39.750;-104.894;2023-12-14T09:34:36;41;40;
70436;PMS5003;57877;39.750;-104.894;2023-12-14T09:37:01;43;40;
70436;PMS5003;57877;39.750;-104.894;2023-12-14T09:39:26;42;41;
70436;PMS5003;57877;39.750;-104.894;2023-12-14T09:41:51;48;47;
70436;PMS5003;57877;39.750;-104.894;2023-12-14T09:44:16;43;41;
70436;PMS5003;57877;39.750;-104.894;2023-12-14T09:46:41;42;40;
70436;PMS5003;57877;39.750;-104.894;2023-12-14T09:49:07;45;45;
70436;PMS5003;57877;39.750;-104.894;2023-12-14T09:51:32;46;45;
70436;PMS5003;57877;39.750;-104.894;2023-12-14T09:53:57;45;44;
70436;PMS5003;57877;39.750;-104.894;2023-12-14T09:56:22;47;43;
70436;PMS5003;57877;39.750;-104.894;2023-12-14T09:58:47;45;43;
70436;PMS5003;57877;39.750;-104.894;2023-12-14T10:03:37;44;43;
70436;PMS5003;57877;39.750;-104.894;2023-12-14T10:06:02;47;46;
70436;PMS5003;57877;39.750;-104.894;2023-12-14T10:08:27;47;44;
70436;PMS5003;57877;39.750;-104.894;2023-12-14T10:10:53;48;43;
70436;PMS5003;57877;39.750;-104.894;2023-12-14T10:13:38;46;44;
70436;PMS5003;57877;39.750;-104.894;2023-12-14T10:15:43;43;41;
70436;PMS5003;57877;39.750;-104.894;2023-12-14T10:18:08;46;42;
70436;PMS5003;57877;39.750;-104.894;2023-12-14T10:20:33;49;45;
70436;PMS5003;57877;39.750;-104.894;2023-12-14T10:22:58;50;47;
70436;PMS5003;57877;39.750;-104.894;2023-12-14T10:25:23;46;44;
70436;PMS5003;57877;39.750;-104.894;2023-12-14T10:27:48;45;43;
70436;PMS5003;57877;39.750;-104.894;2023-12-14T10:30:14;45;43;
70436;PMS5003;57877;39.750;-104.894;2023-12-14T10:32:38;44;43;
70436;PMS5003;57877;39.750;-104.894;2023-12-14T10:35:04;49;47;
70436;PMS5003;57877;39.750;-104.894;2023-12-14T10:37:28;46;43;
70436;PMS5003;57877;39.750;-104.894;2023-12-14T10:39:54;51;46;
70436;PMS5003;57877;39.750;-104.894;2023-12-14T10:42:19;50;48;
70436;PMS5003;57877;39.750;-104.894;2023-12-14T10:44:44;46;45;
70436;PMS5003;57877;39.750;-104.894;2023-12-14T10:47:09;47;46;
70436;PMS5003;57877;39.750;-104.894;2023-12-14T10:49:34;51;47;
70436;PMS5003;57877;39.750;-104.894;2023-12-14T10:51:59;48;45;
70436;PMS5003;57877;39.750;-104.894;2023-12-14T10:54:25;48;48;
70436;PMS5003;57877;39.750;-104.894;2023-12-14T10:56:49;47;45;
70436;PMS5003;57877;39.750;-104.894;2023-12-14T10:59:15;49;46;
70436;PMS5003;57877;39.750;-104.894;2023-12-14T11:01:39;52;48;
70436;PMS5003;57877;39.750;-104.894;2023-12-14T11:04:05;47;44;
70436;PMS5003;57877;39.750;-104.894;2023-12-14T11:06:30;47;44;
70436;PMS5003;57877;39.750;-104.894;2023-12-14T11:08:56;45;42;
70436;PMS5003;57877;39.750;-104.894;2023-12-14T11:11:19;46;43;
70436;PMS5003;57877;39.750;-104.894;2023-12-14T11:13:45;44;43;
70436;PMS5003;57877;39.750;-104.894;2023-12-14T11:16:10;48;44;
70436;PMS5003;57877;39.750;-104.894;2023-12-14T11:18:35;47;42;
70436;PMS5003;57877;39.750;-104.894;2023-12-14T11:21:00;46;45;
70436;PMS5003;57877;39.750;-104.894;2023-12-14T11:23:27;48;45;
70436;PMS5003;57877;39.750;-104.894;2023-12-14T11:25:51;48;44;
70436;PMS5003;57877;39.750;-104.894;2023-12-14T11:28:16;44;43;
70436;PMS5003;57877;39.750;-104.894;2023-12-14T11:30:42;45;44;
70436;PMS5003;57877;39.750;-104.894;2023-12-14T11:33:06;44;42;
70436;PMS5003;57877;39.750;-104.894;2023-12-14T11:35:31;47;44;
70436;PMS5003;57877;39.750;-104.894;2023-12-14T11:37:56;48;47;
70436;PMS5003;57877;39.750;-104.894;2023-12-14T11:40:21;46;43;
70436;PMS5003;57877;39.750;-104.894;2023-12-14T11:42:46;45;44;
70436;PMS5003;57877;39.750;-104.894;2023-12-14T11:45:11;51;47;
70436;PMS5003;57877;39.750;-104.894;2023-12-14T11:47:36;47;45;
70436;PMS5003;57877;39.750;-104.894;2023-12-14T11:50:02;49;45;
70436;PMS5003;57877;39.750;-104.894;2023-12-14T11:52:27;49;47;
70436;PMS5003;57877;39.750;-104.894;2023-12-14T11:54:51;48;44;
70436;PMS5003;57877;39.750;-104.894;2023-12-14T11:57:17;46;44;
70436;PMS5003;57877;39.750;-104.894;2023-12-14T11:59:42;46;45;
70436;PMS5003;57877;39.750;-104.894;2023-12-14T12:02:07;49;47;
70436;PMS5003;57877;39.750;-104.894;2023-12-14T12:04:32;47;44;
70436;PMS5003;57877;39.750;-104.894;2023-12-14T12:07:01;47;44;
70436;PMS5003;57877;39.750;-104.894;2023-12-14T12:11:47;47;46;
70436;PMS5003;57877;39.750;-104.894;2023-12-14T12:14:12;45;44;
70436;PMS5003;57877;39.750;-104.894;2023-12-14T12:16:37;44;42;
70436;PMS5003;57877;39.750;-104.894;2023-12-14T12:19:02;48;46;
70436;PMS5003;57877;39.750;-104.894;2023-12-14T12:21:28;48;45;
70436;PMS5003;57877;39.750;-104.894;2023-12-14T12:23:53;47;45;
70436;PMS5003;57877;39.750;-104.894;2023-12-14T12:26:18;44;42;
70436;PMS5003;57877;39.750;-104.894;2023-12-14T12:28:43;45;44;
70436;PMS5003;57877;39.750;-104.894;2023-12-14T12:31:08;47;43;
70436;PMS5003;57877;39.750;-104.894;2023-12-14T12:33:33;47;44;
70436;PMS5003;57877;39.750;-104.894;2023-12-14T12:35:58;55;52;
70436;PMS5003;57877;39.750;-104.894;2023-12-14T12:38:23;41;40;
70436;PMS5003;57877;39.750;-104.894;2023-12-14T12:40:48;53;51;
70436;PMS5003;57877;39.750;-104.894;2023-12-14T12:43:13;47;44;
70436;PMS5003;57877;39.750;-104.894;2023-12-14T12:45:38;55;49;
70436;PMS5003;57877;39.750;-104.894;2023-12-14T12:48:03;61;57;
70436;PMS5003;57877;39.750;-104.894;2023-12-14T12:50:28;45;42;
70436;PMS5003;57877;39.750;-104.894;2023-12-14T12:52:54;45;44;
70436;PMS5003;57877;39.750;-104.894;2023-12-14T12:55:19;48;44;
70436;PMS5003;57877;39.750;-104.894;2023-12-14T12:57:44;43;41;
70436;PMS5003;57877;39.750;-104.894;2023-12-14T13:00:09;47;44;
70436;PMS5003;57877;39.750;-104.894;2023-12-14T13:02:34;48;45;
70436;PMS5003;57877;39.750;-104.894;2023-12-14T13:04:59;47;44;
70436;PMS5003;57877;39.750;-104.894;2023-12-14T13:07:24;52;49;
70436;PMS5003;57877;39.750;-104.894;2023-12-14T13:09:49;49;47;
70436;PMS5003;57877;39.750;-104.894;2023-12-14T13:12:14;52;49;
70436;PMS5003;57877;39.750;-104.894;2023-12-14T13:14:40;52;49;
70436;PMS5003;57877;39.750;-104.894;2023-12-14T13:17:04;59;57;
70436;PMS5003;57877;39.750;-104.894;2023-12-14T13:19:29;57;53;
70436;PMS5003;57877;39.750;-104.894;2023-12-14T13:21:54;49;46;
70436;PMS5003;57877;39.750;-104.894;2023-12-14T13:24:20;51;46;
70436;PMS5003;57877;39.750;-104.894;2023-12-14T13:26:45;61;59;
70436;PMS5003;57877;39.750;-104.894;2023-12-14T13:29:10;48;47;
70436;PMS5003;57877;39.750;-104.894;2023-12-14T13:31:35;48;46;
70436;PMS5003;57877;39.750;-104.894;2023-12-14T13:34:00;51;48;
70436;PMS5003;57877;39.750;-104.894;2023-12-14T13:36:25;51;49;
70436;PMS5003;57877;39.750;-104.894;2023-12-14T13:38:50;53;47;
70436;PMS5003;57877;39.750;-104.894;2023-12-14T13:41:15;55;52;
70436;PMS5003;57877;39.750;-104.894;2023-12-14T13:43:40;60;57;
70436;PMS5003;57877;39.750;-104.894;2023-12-14T13:46:05;57;54;
70436;PMS5003;57877;39.750;-104.894;2023-12-14T13:48:30;62;61;
70436;PMS5003;57877;39.750;-104.894;2023-12-14T13:50:56;56;54;
70436;PMS5003;57877;39.750;-104.894;2023-12-14T13:53:21;58;55;
70436;PMS5003;57877;39.750;-104.894;2023-12-14T13:55:46;49;47;
70436;PMS5003;57877;39.750;-104.894;2023-12-14T13:58:11;62;60;
70436;PMS5003;57877;39.750;-104.894;2023-12-14T14:00:36;55;53;
70436;PMS5003;57877;39.750;-104.894;2023-12-14T14:03:01;53;51;
70436;PMS5003;57877;39.750;-104.894;2023-12-14T14:05:26;57;53;
70436;PMS5003;57877;39.750;-104.894;2023-12-14T14:07:51;52;51;
70436;PMS5003;57877;39.750;-104.894;2023-12-14T14:10:16;55;50;
70436;PMS5003;57877;39.750;-104.894;2023-12-14T14:12:41;60;55;
70436;PMS5003;57877;39.750;-104.894;2023-12-14T14:15:07;53;52;
70436;PMS5003;57877;39.750;-104.894;2023-12-14T14:17:31;51;48;
70436;PMS5003;57877;39.750;-104.894;2023-12-14T14:19:56;55;50;
70436;PMS5003;57877;39.750;-104.894;2023-12-14T14:22:21;54;50;
70436;PMS5003;57877;39.750;-104.894;2023-12-14T14:24:47;51;50;
70436;PMS5003;57877;39.750;-104.894;2023-12-14T14:27:12;49;49;
70436;PMS5003;57877;39.750;-104.894;2023-12-14T14:29:37;50;47;
70436;PMS5003;57877;39.750;-104.894;2023-12-14T14:32:02;55;51;
70436;PMS5003;57877;39.750;-104.894;2023-12-14T14:34:27;53;50;
70436;PMS5003;57877;39.750;-104.894;2023-12-14T14:36:52;53;51;
70436;PMS5003;57877;39.750;-104.894;2023-12-14T14:39:17;52;51;
70436;PMS5003;57877;39.750;-104.894;2023-12-14T14:41:42;54;54;
70436;PMS5003;57877;39.750;-104.894;2023-12-14T14:44:07;54;51;
70436;PMS5003;57877;39.750;-104.894;2023-12-14T14:46:32;57;51;
70436;PMS5003;57877;39.750;-104.894;2023-12-14T14:48:57;50;50;
70436;PMS5003;57877;39.750;-104.894;2023-12-14T14:51:22;58;56;
70436;PMS5003;57877;39.750;-104.894;2023-12-14T14:53:48;58;56;
70436;PMS5003;57877;39.750;-104.894;2023-12-14T14:56:13;56;52;
70436;PMS5003;57877;39.750;-104.894;2023-12-14T14:58:38;60;56;
70436;PMS5003;57877;39.750;-104.894;2023-12-14T15:01:03;55;53;
70436;PMS5003;57877;39.750;-104.894;2023-12-14T15:03:28;55;52;
70436;PMS5003;57877;39.750;-104.894;2023-12-14T15:05:53;55;53;
70436;PMS5003;57877;39.750;-104.894;2023-12-14T15:08:18;57;54;
70436;PMS5003;57877;39.750;-104.894;2023-12-14T15:10:43;54;53;
70436;PMS5003;57877;39.750;-104.894;2023-12-14T15:13:08;58;56;
70436;PMS5003;57877;39.750;-104.894;2023-12-14T15:15:33;57;55;
70436;PMS5003;57877;39.750;-104.894;2023-12-14T15:17:58;57;54;
70436;PMS5003;57877;39.750;-104.894;2023-12-14T15:20:23;65;62;
70436;PMS5003;57877;39.750;-104.894;2023-12-14T15:22:48;58;56;